Time;durP1;ratioP1;P1;durP2;ratioP2;P2;SDS_P1;SDS_P2;PMS_P1;PMS_P2;Temp;Humidity;BMP_temperature;BMP_pressure;BME280_temperature;BME280_humidity;BME280_pressure;Samples;Min_cycle;Max_cycle;Signal;HPM_P1;HPM_P2
2021/03/02 00:01:52;;;;;;;31.23;15.40;;;;;;;3.29;100.00;97675.44;5041905;28;20040;-52
2021/03/02 00:04:20;;;;;;;26.75;14.82;;;;;;;3.25;100.00;97679.94;5005008;28;20118;-57
2021/03/02 00:06:49;;;;;;;32.83;15.52;;;;;;;3.25;100.00;97679.09;5040445;28;20052;-58
2021/03/02 00:09:16;;;;;;;30.45;15.90;;;;;;;3.23;100.00;97673.09;5007121;28;20394;-55
2021/03/02 00:11:44;;;;;;;28.27;16.40;;;;;;;3.24;100.00;97678.25;5052234;28;20045;-56
2021/03/02 00:14:11;;;;;;;24.83;14.20;;;;;;;3.20;100.00;97679.31;4998786;28;20033;-56
2021/03/02 00:16:42;;;;;;;26.05;14.88;;;;;;;3.15;100.00;97683.88;5039066;28;20124;-58
2021/03/02 00:19:13;;;;;;;28.30;15.25;;;;;;;3.15;100.00;97686.47;5014853;28;20048;-57
2021/03/02 00:21:42;;;;;;;27.23;14.75;;;;;;;3.07;100.00;97686.84;5035457;28;20048;-58
2021/03/02 00:24:11;;;;;;;34.40;15.57;;;;;;;3.00;100.00;97681.97;4981174;28;20476;-58
2021/03/02 00:26:46;;;;;;;25.75;14.82;;;;;;;3.01;100.00;97686.25;5039026;28;20365;-59
2021/03/02 00:29:14;;;;;;;26.35;13.93;;;;;;;3.00;100.00;97680.19;5008020;28;20059;-58
2021/03/02 00:31:42;;;;;;;26.35;14.55;;;;;;;3.00;100.00;97682.81;5056304;28;20533;-57
2021/03/02 00:34:11;;;;;;;28.52;14.02;;;;;;;2.94;100.00;97687.44;5006281;28;20068;-58
2021/03/02 00:36:39;;;;;;;26.00;15.52;;;;;;;2.90;100.00;97696.31;5031484;28;20060;-59
2021/03/02 00:39:07;;;;;;;27.85;14.77;;;;;;;2.88;100.00;97700.72;5018742;28;20033;-59
2021/03/02 00:41:34;;;;;;;29.52;16.25;;;;;;;2.79;100.00;97700.22;5008098;28;20118;-57
2021/03/02 00:44:01;;;;;;;30.88;16.38;;;;;;;2.75;100.00;97695.19;5025803;28;20100;-57
2021/03/02 00:46:28;;;;;;;34.25;17.77;;;;;;;2.67;100.00;97695.53;4990924;28;20420;-58
2021/03/02 00:48:55;;;;;;;33.65;19.27;;;;;;;2.54;100.00;97700.41;5054566;28;20583;-57
2021/03/02 00:51:22;;;;;;;34.92;21.25;;;;;;;2.52;100.00;97689.22;5012421;28;20045;-59
2021/03/02 00:53:49;;;;;;;39.72;21.85;;;;;;;2.51;100.00;97699.69;5041954;28;20091;-56
2021/03/02 00:56:16;;;;;;;32.90;19.92;;;;;;;2.48;100.00;97689.41;4998865;28;20115;-58
2021/03/02 00:58:44;;;;;;;33.15;19.77;;;;;;;2.54;100.00;97696.94;5036221;28;20045;-55
2021/03/02 01:01:12;;;;;;;36.08;19.23;;;;;;;2.55;100.00;97696.91;4999874;28;20063;-55
2021/03/02 01:03:40;;;;;;;32.78;18.45;;;;;;;2.55;100.00;97683.88;5038774;28;20037;-56
2021/03/02 01:06:07;;;;;;;29.02;16.85;;;;;;;2.48;100.00;97698.06;4997428;28;20095;-57
2021/03/02 01:08:33;;;;;;;31.20;16.42;;;;;;;2.51;100.00;97691.88;5025136;28;20072;-54
2021/03/02 01:11:00;;;;;;;28.83;16.27;;;;;;;2.50;100.00;97687.59;5000322;28;20407;-56
2021/03/02 01:13:28;;;;;;;28.45;16.38;;;;;;;2.46;100.00;97686.03;5056910;28;20036;-58
2021/03/02 01:15:55;;;;;;;36.72;18.38;;;;;;;2.41;100.00;97680.16;5002781;28;20692;-54
2021/03/02 01:18:22;;;;;;;33.72;17.88;;;;;;;2.39;100.00;97680.22;5039217;28;20514;-55
2021/03/02 01:20:49;;;;;;;31.65;17.30;;;;;;;2.40;100.00;97681.91;5000910;28;20038;-57
2021/03/02 01:23:15;;;;;;;32.50;17.50;;;;;;;2.37;100.00;97674.22;5011593;28;20045;-58
2021/03/02 01:25:43;;;;;;;32.90;17.00;;;;;;;2.40;100.00;97670.66;5017717;28;20065;-60
2021/03/02 01:28:09;;;;;;;32.60;17.15;;;;;;;2.26;100.00;97672.06;4989032;28;20056;-59
2021/03/02 01:30:37;;;;;;;32.53;17.13;;;;;;;2.25;100.00;97667.78;5039637;28;20049;-56
2021/03/02 01:33:06;;;;;;;34.10;18.63;;;;;;;2.25;100.00;97661.75;5005617;28;20167;-55
2021/03/02 01:35:33;;;;;;;37.17;17.88;;;;;;;2.24;100.00;97670.47;5045281;28;20055;-57
2021/03/02 01:38:00;;;;;;;32.28;17.55;;;;;;;2.20;100.00;97661.91;5003305;28;20128;-57
2021/03/02 01:40:28;;;;;;;32.08;17.42;;;;;;;2.21;100.00;97668.00;5041429;28;20038;-56
2021/03/02 01:42:55;;;;;;;33.40;17.17;;;;;;;2.21;100.00;97660.19;5007145;28;20799;-60
2021/03/02 01:45:22;;;;;;;33.92;17.50;;;;;;;2.19;100.00;97670.63;5045417;28;20059;-54
2021/03/02 01:47:51;;;;;;;35.08;16.98;;;;;;;2.18;100.00;97668.13;5012580;28;20069;-57
2021/03/02 01:50:20;;;;;;;31.40;17.08;;;;;;;2.06;100.00;97672.03;5057338;28;20059;-58
2021/03/02 01:52:47;;;;;;;37.42;18.08;;;;;;;2.01;100.00;97671.41;5007311;28;20045;-59
2021/03/02 01:55:16;;;;;;;31.90;16.35;;;;;;;2.00;100.00;97669.72;5047331;28;20040;-56
2021/03/02 01:57:43;;;;;;;35.20;17.92;;;;;;;2.01;100.00;97667.03;5001873;28;20052;-53
2021/03/02 02:00:17;;;;;;;30.52;16.88;;;;;;;2.01;100.00;97666.19;5038114;28;20036;-58
2021/03/02 02:02:52;;;;;;;30.50;16.67;;;;;;;1.97;100.00;97670.69;5002977;28;20041;-59
2021/03/02 02:05:21;;;;;;;31.38;16.02;;;;;;;1.75;100.00;97669.81;5041806;28;20087;-59
2021/03/02 02:07:52;;;;;;;28.90;15.80;;;;;;;1.36;100.00;97660.91;4995936;28;20033;-58
2021/03/02 02:10:40;;;;;;;28.25;15.75;;;;;;;1.35;100.00;97666.19;5039149;28;20392;-59
2021/03/02 02:13:11;;;;;;;34.50;16.65;;;;;;;1.27;100.00;97669.06;4993558;28;20053;-55
2021/03/02 02:15:39;;;;;;;33.25;16.80;;;;;;;1.32;100.00;97674.94;5022861;28;20041;-59
2021/03/02 02:18:09;;;;;;;30.27;15.73;;;;;;;1.34;100.00;97670.53;4993778;28;20431;-58
2021/03/02 02:20:41;;;;;;;;;;;;;;;1.28;100.00;97677.72;5018636;28;20117;-57
2021/03/02 02:23:15;;;;;;;32.25;16.23;;;;;;;1.14;100.00;97675.63;5017710;28;19921;-55
2021/03/02 02:25:49;;;;;;;28.23;15.85;;;;;;;1.16;100.00;97682.44;5036141;28;20056;-57
2021/03/02 02:28:18;;;;;;;31.60;17.13;;;;;;;1.19;100.00;97676.28;5053009;28;20049;-54
2021/03/02 02:30:49;;;;;;;33.22;16.70;;;;;;;1.12;100.00;97682.63;4988031;28;20041;-57
2021/03/02 02:33:16;;;;;;;34.03;17.35;;;;;;;1.08;100.00;97689.69;5015350;28;20053;-57
2021/03/02 02:35:46;;;;;;;34.67;17.45;;;;;;;1.02;100.00;97682.09;5006424;28;20137;-52
2021/03/02 02:38:15;;;;;;;31.02;16.48;;;;;;;1.02;100.00;97679.50;5034987;28;20051;-53
2021/03/02 02:40:42;;;;;;;35.13;16.38;;;;;;;1.02;100.00;97684.72;5010488;28;20042;-51
2021/03/02 02:43:10;;;;;;;36.55;16.70;;;;;;;1.03;100.00;97681.19;5039206;28;20401;-55
2021/03/02 02:45:38;;;;;;;32.97;17.35;;;;;;;0.95;100.00;97689.28;5000035;28;20045;-53
2021/03/02 02:48:06;;;;;;;34.53;16.88;;;;;;;0.90;100.00;97695.56;5048584;28;20072;-57
2021/03/02 02:50:33;;;;;;;35.47;16.95;;;;;;;0.81;100.00;97690.69;5015962;28;20526;-57
2021/03/02 02:53:00;;;;;;;33.88;17.15;;;;;;;0.78;100.00;97685.59;5054970;28;20122;-57
2021/03/02 02:55:35;;;;;;;31.30;16.60;;;;;;;0.71;100.00;97688.41;5010043;28;20069;-61
2021/03/02 02:58:06;;;;;;;31.90;16.33;;;;;;;0.65;100.00;97693.81;5037841;28;20096;-54
2021/03/02 03:00:34;;;;;;;38.95;17.50;;;;;;;0.73;100.00;97692.72;5014295;28;20040;-54
2021/03/02 03:03:05;;;;;;;35.78;18.33;;;;;;;0.69;100.00;97694.56;5048423;28;20080;-58
2021/03/02 03:05:33;;;;;;;35.90;18.23;;;;;;;0.70;100.00;97698.84;5014279;28;20033;-55
2021/03/02 03:08:04;;;;;;;36.83;17.65;;;;;;;0.79;100.00;97701.13;5040005;28;20095;-60
2021/03/02 03:10:31;;;;;;;33.83;17.83;;;;;;;0.67;100.00;97704.97;5008866;28;20103;-59
2021/03/02 03:13:01;;;;;;;35.53;18.05;;;;;;;0.60;100.00;97700.06;5045303;28;20119;-57
2021/03/02 03:15:28;;;;;;;36.65;18.45;;;;;;;0.52;100.00;97702.06;5013213;28;20065;-57
2021/03/02 03:17:57;;;;;;;32.90;17.05;;;;;;;0.31;100.00;97701.91;5047799;28;20098;-57
2021/03/02 03:20:26;;;;;;;38.70;17.88;;;;;;;0.38;100.00;97695.59;5006759;28;20615;-60
2021/03/02 03:22:54;;;;;;;37.38;17.40;;;;;;;0.42;100.00;97699.78;5021815;28;20045;-59
2021/03/02 03:25:21;;;;;;;35.38;17.40;;;;;;;0.39;100.00;97696.44;5047737;28;20137;-57
2021/03/02 03:27:51;;;;;;;34.72;17.13;;;;;;;0.35;100.00;97706.09;4990621;28;20068;-59
2021/03/02 03:30:18;;;;;;;31.65;16.15;;;;;;;0.16;100.00;97700.66;5036226;28;20060;-60
2021/03/02 03:32:47;;;;;;;31.75;16.80;;;;;;;-0.03;100.00;97697.81;4995598;28;20049;-59
2021/03/02 03:35:15;;;;;;;36.47;17.23;;;;;;;0.01;100.00;97703.75;5040629;28;20049;-62
2021/03/02 03:37:43;;;;;;;34.75;17.58;;;;;;;0.03;100.00;97693.31;5012902;28;20059;-59
2021/03/02 03:40:12;;;;;;;37.35;18.55;;;;;;;0.02;100.00;97704.59;5036034;28;20069;-56
2021/03/02 03:42:41;;;;;;;32.70;18.25;;;;;;;-0.03;100.00;97703.00;4996556;28;20124;-60
2021/03/02 03:45:09;;;;;;;34.22;16.60;;;;;;;-0.05;100.00;97709.13;5045272;28;20057;-58
2021/03/02 03:47:36;;;;;;;31.70;17.30;;;;;;;-0.01;100.00;97710.72;5010703;28;20041;-59
2021/03/02 03:50:05;;;;;;;34.97;17.67;;;;;;;0.02;100.00;97705.44;5041152;28;20041;-59
2021/03/02 03:52:32;;;;;;;34.22;17.48;;;;;;;-0.03;100.00;97715.13;5005228;28;20045;-62
2021/03/02 03:55:00;;;;;;;31.75;17.45;;;;;;;0.10;100.00;97711.22;5051743;28;20068;-61
2021/03/02 03:57:27;;;;;;;34.53;17.80;;;;;;;0.09;100.00;97709.53;4998183;28;20065;-59
2021/03/02 03:59:54;;;;;;;35.83;17.85;;;;;;;0.10;100.00;97708.63;5050438;28;20048;-60
2021/03/02 04:02:21;;;;;;;40.15;18.35;;;;;;;-0.01;100.00;97708.97;5000988;28;20144;-51
2021/03/02 04:04:48;;;;;;;33.45;17.30;;;;;;;-0.01;100.00;97706.38;5042864;28;20037;-58
2021/03/02 04:07:16;;;;;;;34.38;18.02;;;;;;;-0.16;100.00;97716.41;5003414;28;20519;-53
2021/03/02 04:09:43;;;;;;;34.13;17.15;;;;;;;-0.13;100.00;97711.97;5026073;28;20076;-59
2021/03/02 04:12:11;;;;;;;35.45;17.88;;;;;;;-0.19;100.00;97709.56;5017571;28;20119;-59
2021/03/02 04:14:40;;;;;;;34.63;18.02;;;;;;;-0.13;100.00;97724.09;5005288;28;20717;-56
2021/03/02 04:17:09;;;;;;;34.47;16.70;;;;;;;-0.15;100.00;97721.53;5043119;28;20049;-58
2021/03/02 04:19:36;;;;;;;34.72;17.60;;;;;;;-0.11;100.00;97728.31;5015673;28;20071;-56
2021/03/02 04:22:03;;;;;;;35.33;17.40;;;;;;;-0.09;100.00;97721.34;5037784;28;20060;-59
2021/03/02 04:24:30;;;;;;;33.38;17.67;;;;;;;-0.12;100.00;97718.00;4993036;28;20083;-58
2021/03/02 04:26:57;;;;;;;36.50;17.73;;;;;;;-0.09;100.00;97717.91;5042851;28;20099;-58
2021/03/02 04:29:25;;;;;;;39.35;17.83;;;;;;;-0.18;100.00;97734.56;4995847;28;20520;-55
2021/03/02 04:31:52;;;;;;;34.47;17.25;;;;;;;-0.23;100.00;97730.44;5029511;28;20069;-58
2021/03/02 04:34:19;;;;;;;40.03;18.52;;;;;;;-0.31;100.00;97728.94;4994827;28;20512;-59
2021/03/02 04:36:46;;;;;;;38.88;19.02;;;;;;;-0.31;100.00;97733.25;5043757;28;20136;-59
2021/03/02 04:39:13;;;;;;;36.97;17.13;;;;;;;-0.24;100.00;97732.19;5008183;28;20086;-58
2021/03/02 04:41:39;;;;;;;42.63;18.90;;;;;;;-0.24;100.00;97732.19;5049076;28;20606;-58
2021/03/02 04:44:06;;;;;;;34.78;18.08;;;;;;;-0.26;100.00;97733.97;4985926;28;20132;-58
2021/03/02 04:46:34;;;;;;;38.67;19.35;;;;;;;-0.31;100.00;97728.06;5029733;28;20118;-58
2021/03/02 04:49:02;;;;;;;37.88;18.50;;;;;;;-0.27;100.00;97734.88;4995593;28;20557;-58
2021/03/02 04:51:28;;;;;;;35.17;18.35;;;;;;;-0.28;100.00;97730.56;5023825;28;20049;-58
2021/03/02 04:53:56;;;;;;;44.67;19.02;;;;;;;-0.31;100.00;97735.84;5046162;28;20432;-58
2021/03/02 04:56:22;;;;;;;36.55;17.35;;;;;;;-0.42;100.00;97732.72;5006823;28;20041;-59
2021/03/02 04:58:50;;;;;;;37.55;18.35;;;;;;;-0.32;100.00;97734.16;5041187;28;20059;-58
2021/03/02 05:01:17;;;;;;;40.75;19.38;;;;;;;-0.23;100.00;97738.22;5015649;28;20068;-58
2021/03/02 05:03:45;;;;;;;38.35;18.15;;;;;;;-0.12;100.00;97739.56;5037102;28;20048;-53
2021/03/02 05:06:11;;;;;;;44.20;19.70;;;;;;;-0.13;100.00;97740.47;5012898;28;20049;-57
2021/03/02 05:08:38;;;;;;;41.63;19.52;;;;;;;-0.19;100.00;97737.22;5050370;28;20079;-59
2021/03/02 05:11:05;;;;;;;38.20;18.98;;;;;;;-0.35;100.00;97735.09;5009000;28;20073;-58
2021/03/02 05:13:32;;;;;;;36.33;18.95;;;;;;;-0.39;100.00;97733.50;5050305;28;20044;-58
2021/03/02 05:16:10;;;;;;;33.63;16.60;;;;;;;-0.44;100.00;97726.75;5003567;28;20108;-56
2021/03/02 05:18:38;;;;;;;37.92;19.52;;;;;;;-0.41;100.00;97732.72;5046260;28;20045;-57
2021/03/02 05:21:06;;;;;;;31.67;17.42;;;;;;;-0.66;100.00;97729.97;5011740;28;20098;-57
2021/03/02 05:23:32;;;;;;;34.22;17.58;;;;;;;-0.74;100.00;97727.59;5048112;28;20045;-57
2021/03/02 05:25:59;;;;;;;30.60;17.10;;;;;;;-0.75;100.00;97723.31;5008962;28;20137;-59
2021/03/02 05:28:26;;;;;;;33.65;16.27;;;;;;;-0.73;100.00;97725.84;5043794;28;20482;-57
2021/03/02 05:30:53;;;;;;;34.83;17.58;;;;;;;-0.74;100.00;97730.19;5004501;28;20126;-56
2021/03/02 05:33:20;;;;;;;35.35;17.08;;;;;;;-0.86;100.00;97730.56;5047130;28;20114;-55
2021/03/02 05:35:47;;;;;;;35.80;17.27;;;;;;;-0.89;100.00;97732.38;5008803;28;20091;-57
2021/03/02 05:38:15;;;;;;;31.73;16.23;;;;;;;-0.87;100.00;97731.44;5047669;28;20082;-57
2021/03/02 05:40:42;;;;;;;32.63;17.58;;;;;;;-0.87;100.00;97734.03;5041779;28;20458;-58
2021/03/02 05:43:10;;;;;;;35.15;17.05;;;;;;;-0.88;100.00;97732.34;5024519;28;20040;-58
2021/03/02 05:45:37;;;;;;;34.33;17.33;;;;;;;-0.96;100.00;97736.88;5035336;28;20041;-59
2021/03/02 05:48:07;;;;;;;32.25;16.15;;;;;;;-1.11;100.00;97726.94;4982697;28;20073;-58
2021/03/02 05:50:34;;;;;;;;;;;;;;;-1.10;100.00;97736.38;5047778;28;20124;-57
2021/03/02 05:53:02;;;;;;;30.27;15.10;;;;;;;-1.07;100.00;97741.47;5005290;28;20075;-58
2021/03/02 05:55:30;;;;;;;30.15;14.57;;;;;;;-1.05;100.00;97739.72;5062335;28;20090;-58
2021/03/02 05:57:57;;;;;;;30.48;14.48;;;;;;;-1.15;100.00;97746.03;5014924;28;20057;-56
2021/03/02 06:00:24;;;;;;;24.20;13.73;;;;;;;-1.14;100.00;97738.22;5047758;28;20072;-58
2021/03/02 06:02:51;;;;;;;29.75;14.88;;;;;;;-1.08;100.00;97740.66;5013689;28;20130;-58
2021/03/02 06:05:18;;;;;;;30.77;14.85;;;;;;;-1.06;100.00;97753.56;5046165;28;20056;-59
2021/03/02 06:07:45;;;;;;;29.08;14.15;;;;;;;-1.12;100.00;97757.16;5004365;28;20065;-56
2021/03/02 06:10:12;;;;;;;29.35;14.63;;;;;;;-1.05;100.00;97760.44;5044092;28;20697;-56
2021/03/02 06:12:52;;;;;;;31.05;14.73;;;;;;;-0.96;100.00;97760.19;5019150;28;20057;-58
2021/03/02 06:15:20;;;;;;;;;;;;;;;-1.03;100.00;97759.50;5044171;28;20507;-58
2021/03/02 06:18:08;;;;;;;27.65;13.25;;;;;;;-0.91;100.00;97768.66;5010203;28;19925;-56
2021/03/02 06:20:35;;;;;;;29.00;13.63;;;;;;;-0.94;100.00;97766.16;5059644;28;20048;-58
2021/03/02 06:23:24;;;;;;;30.45;13.90;;;;;;;-0.83;100.00;97764.09;5015790;28;20045;-56
2021/03/02 06:25:53;;;;;;;28.90;14.05;;;;;;;-0.77;100.00;97768.28;5052502;28;20053;-58
2021/03/02 06:28:39;;;;;;;37.33;13.45;;;;;;;-0.64;100.00;97772.22;4997911;28;20040;-57
2021/03/02 06:31:07;;;;;;;45.58;22.45;;;;;;;-0.58;100.00;97786.75;5042921;28;20104;-58
2021/03/02 06:33:34;;;;;;;40.22;21.15;;;;;;;-0.40;100.00;97781.03;5012535;28;20096;-54
2021/03/02 06:36:01;;;;;;;26.83;14.10;;;;;;;-0.38;100.00;97781.84;5039607;28;20535;-58
2021/03/02 06:38:30;;;;;;;26.35;12.45;;;;;;;-0.34;100.00;97783.47;5022321;28;22625;-57
2021/03/02 06:40:57;;;;;;;23.98;12.00;;;;;;;-0.37;100.00;97788.72;5056626;28;20044;-56
2021/03/02 06:43:32;;;;;;;23.52;12.63;;;;;;;-0.25;100.00;97780.56;5012691;28;20045;-57
2021/03/02 06:46:00;;;;;;;30.05;15.52;;;;;;;0.03;100.00;97781.47;5035210;28;20107;-56
2021/03/02 06:48:27;;;;;;;29.92;16.08;;;;;;;0.17;100.00;97785.38;5031632;28;20040;-57
2021/03/02 06:50:54;;;;;;;29.67;15.43;;;;;;;0.33;100.00;97783.13;5044080;28;20080;-56
2021/03/02 06:53:21;;;;;;;35.97;18.67;;;;;;;0.35;100.00;97788.28;5061050;28;20064;-57
2021/03/02 06:55:48;;;;;;;36.50;19.00;;;;;;;0.53;100.00;97782.47;5002126;28;20084;-57
2021/03/02 06:58:33;;;;;;;35.53;19.40;;;;;;;0.70;100.00;97793.16;5041898;28;20067;-58
2021/03/02 07:01:01;;;;;;;40.15;21.10;;;;;;;0.82;100.00;97791.03;5011181;28;20584;-58
2021/03/02 07:03:30;;;;;;;39.58;19.67;;;;;;;0.99;100.00;97787.88;5049527;28;20095;-58
2021/03/02 07:06:01;;;;;;;34.05;19.08;;;;;;;1.09;100.00;97797.03;5014231;28;20068;-55
2021/03/02 07:08:27;;;;;;;34.45;18.42;;;;;;;1.24;100.00;97788.72;5047404;28;20095;-56
2021/03/02 07:10:54;;;;;;;38.25;19.10;;;;;;;1.35;100.00;97783.97;5004920;28;20114;-57
2021/03/02 07:13:22;;;;;;;37.67;18.52;;;;;;;1.32;100.00;97784.09;5025103;28;20054;-57
2021/03/02 07:15:51;;;;;;;39.33;19.77;;;;;;;1.32;100.00;97789.28;4989894;28;20045;-57
2021/03/02 07:18:21;;;;;;;39.45;20.40;;;;;;;1.52;100.00;97780.75;5045452;28;20049;-57
2021/03/02 07:20:50;;;;;;;38.53;19.38;;;;;;;1.70;100.00;97783.59;5010072;28;20072;-56
2021/03/02 07:23:18;;;;;;;37.38;20.10;;;;;;;1.75;100.00;97779.03;5028210;28;20041;-58
2021/03/02 07:25:46;;;;;;;38.20;19.00;;;;;;;1.96;100.00;97785.19;5005952;28;20041;-56
2021/03/02 07:28:16;;;;;;;38.92;20.70;;;;;;;2.27;100.00;97777.91;5045560;28;20041;-57
2021/03/02 07:30:45;;;;;;;42.83;21.38;;;;;;;2.47;100.00;97784.88;5004670;28;20033;-57
2021/03/02 07:33:13;;;;;;;;;;;;;;;2.63;100.00;97786.88;5019228;28;21223;-56
2021/03/02 07:35:42;;;;;;;37.50;19.92;;;;;;;2.77;100.00;97785.38;4976079;28;19967;-54
2021/03/02 07:38:15;;;;;;;37.25;20.33;;;;;;;2.97;100.00;97801.97;5037134;28;20072;-53
2021/03/02 07:40:43;;;;;;;41.05;20.60;;;;;;;2.99;100.00;97790.53;5005165;28;20102;-55
2021/03/02 07:43:32;;;;;;;35.83;20.08;;;;;;;3.18;100.00;97797.59;5045121;28;20793;-54
2021/03/02 07:46:00;;;;;;;34.63;19.45;;;;;;;3.37;100.00;97795.00;5007413;28;22566;-56
2021/03/02 07:48:31;;;;;;;41.03;20.73;;;;;;;2.97;100.00;97787.16;5045734;28;20049;-54
2021/03/02 07:51:19;;;;;;;36.10;19.90;;;;;;;3.35;100.00;97797.69;5006617;28;20044;-53
2021/03/02 07:53:47;;;;;;;46.20;20.00;;;;;;;3.37;100.00;97801.06;5045126;28;20040;-55
2021/03/02 07:56:26;;;;;;;35.95;19.13;;;;;;;3.25;100.00;97799.00;5006920;28;20106;-56
2021/03/02 07:59:15;;;;;;;35.08;18.45;;;;;;;3.33;100.00;97797.75;5039783;28;20504;-58
2021/03/02 08:01:41;;;;;;;37.05;18.38;;;;;;;3.44;100.00;97799.91;5017696;28;22551;-51
2021/03/02 08:04:26;;;;;;;34.88;18.63;;;;;;;3.53;100.00;97793.44;5040775;28;20052;-53
2021/03/02 08:07:18;;;;;;;36.65;19.45;;;;;;;3.45;100.00;97798.16;5000937;28;23243;-53
2021/03/02 08:09:45;;;;;;;35.47;19.73;;;;;;;3.89;100.00;97792.66;5033296;28;20554;-53
2021/03/02 08:12:30;;;;;;;30.63;17.02;;;;;;;3.60;100.00;97796.63;4993305;28;20127;-56
2021/03/02 08:14:57;;;;;;;32.10;18.67;;;;;;;4.10;100.00;97796.91;5043596;28;20053;-57
2021/03/02 08:17:25;;;;;;;37.55;19.15;;;;;;;4.15;100.00;97796.69;5013929;28;20127;-54
2021/03/02 08:20:00;;;;;;;35.47;19.48;;;;;;;4.14;100.00;97800.22;5040516;28;20045;-56
2021/03/02 08:22:50;;;;;;;30.08;16.95;;;;;;;4.09;100.00;97799.59;5022168;28;20068;-53
2021/03/02 08:25:27;;;;;;;29.35;17.05;;;;;;;4.24;100.00;97799.72;5056249;28;20451;-52
2021/03/02 08:27:56;;;;;;;32.65;17.70;;;;;;;4.31;100.00;97797.66;5004748;28;20067;-54
2021/03/02 08:30:25;;;;;;;31.40;17.35;;;;;;;4.41;100.00;97798.09;5032088;28;20503;-54
2021/03/02 08:32:53;;;;;;;30.02;18.00;;;;;;;4.78;100.00;97798.88;4982044;28;20135;-54
2021/03/02 08:35:22;;;;;;;32.83;18.33;;;;;;;4.51;100.00;97792.34;5036162;28;20095;-50
2021/03/02 08:37:51;;;;;;;32.92;17.75;;;;;;;4.66;100.00;97797.72;4991225;28;20068;-54
2021/03/02 08:40:20;;;;;;;31.80;17.75;;;;;;;5.14;100.00;97793.59;5027080;28;20091;-53
2021/03/02 08:43:05;;;;;;;26.80;17.00;;;;;;;4.96;100.00;97792.75;5026907;28;20522;-51
2021/03/02 08:45:35;;;;;;;28.77;16.00;;;;;;;4.87;100.00;97798.44;5040637;28;20712;-56
2021/03/02 08:48:19;;;;;;;28.40;16.98;;;;;;;5.02;100.00;97789.81;5041979;28;21951;-57
2021/03/02 08:50:47;;;;;;;28.58;16.98;;;;;;;5.46;100.00;97792.75;5047345;28;20915;-54
2021/03/02 08:53:32;;;;;;;33.25;17.95;;;;;;;5.45;100.00;97787.63;5041712;28;20044;-54
2021/03/02 08:56:00;;;;;;;31.38;17.40;;;;;;;5.76;100.00;97794.69;5046386;28;20046;-52
2021/03/02 08:58:46;;;;;;;28.98;17.13;;;;;;;5.82;100.00;97798.78;5016580;28;20051;-58
2021/03/02 09:01:14;;;;;;;30.02;16.70;;;;;;;5.80;100.00;97798.00;5036712;28;20051;-55
2021/03/02 09:03:43;;;;;;;34.65;18.65;;;;;;;5.94;100.00;97793.72;5029001;28;20384;-56
2021/03/02 09:06:18;;;;;;;30.13;17.35;;;;;;;5.42;100.00;97806.09;5034523;28;20060;-53
2021/03/02 09:08:51;;;;;;;30.08;18.73;;;;;;;6.22;100.00;97804.47;5047179;28;20037;-53
2021/03/02 09:11:20;;;;;;;31.30;17.83;;;;;;;6.18;100.00;97809.03;5011952;28;20384;-53
2021/03/02 09:13:47;;;;;;;26.85;16.17;;;;;;;5.76;100.00;97801.72;5023704;28;20278;-56
2021/03/02 09:16:34;;;;;;;29.30;17.52;;;;;;;6.20;100.00;97809.81;5035125;28;20056;-55
2021/03/02 09:19:23;;;;;;;30.50;17.63;;;;;;;6.13;100.00;97801.44;5050621;28;20043;-53
2021/03/02 09:21:57;;;;;;;28.27;17.67;;;;;;;6.57;100.00;97802.50;4998372;28;20041;-56
2021/03/02 09:24:41;;;;;;;26.98;16.00;;;;;;;6.80;100.00;97794.19;5046398;28;20046;-56
2021/03/02 09:27:10;;;;;;;30.88;17.17;;;;;;;6.63;100.00;97803.00;5004625;28;20147;-56
2021/03/02 09:29:40;;;;;;;28.08;16.48;;;;;;;6.72;100.00;97806.88;5038763;28;20041;-55
2021/03/02 09:32:07;;;;;;;24.17;15.60;;;;;;;6.79;100.00;97804.75;5010488;28;20053;-52
2021/03/02 09:34:36;;;;;;;28.83;17.05;;;;;;;6.88;100.00;97810.31;5027603;28;20054;-54
2021/03/02 09:37:25;;;;;;;26.42;16.60;;;;;;;6.28;100.00;97809.38;4989351;28;20079;-54
2021/03/02 09:40:34;;;;;;;25.55;15.68;;;;;;;7.05;100.00;97798.84;4982650;28;20042;-56
2021/03/02 09:43:34;;;;;;;24.20;15.70;;;;;;;7.19;100.00;97798.06;5018889;28;20045;-58
2021/03/02 09:46:01;;;;;;;24.38;15.13;;;;;;;6.94;100.00;97797.78;4991093;28;22371;-56
2021/03/02 09:48:28;;;;;;;26.80;16.17;;;;;;;6.64;100.00;97798.59;5034784;28;20037;-56
2021/03/02 09:50:55;;;;;;;26.40;15.77;;;;;;;7.13;100.00;97795.78;5029195;28;20124;-55
2021/03/02 09:53:22;;;;;;;24.75;15.25;;;;;;;7.17;100.00;97801.69;5026306;28;20029;-49
2021/03/02 09:55:50;;;;;;;27.55;16.92;;;;;;;7.75;100.00;97800.81;5031665;28;20423;-52
2021/03/02 09:58:17;;;;;;;27.67;16.15;;;;;;;7.72;100.00;97795.75;4992169;28;20053;-56
2021/03/02 10:00:49;;;;;;;30.52;16.05;;;;;;;7.69;100.00;97802.03;5051805;28;20094;-55
2021/03/02 10:03:19;;;;;;;24.10;15.25;;;;;;;7.99;100.00;97804.56;5003628;28;20040;-56
2021/03/02 10:05:54;;;;;;;30.08;15.98;;;;;;;7.59;100.00;97808.78;5061560;28;20053;-54
2021/03/02 10:08:28;;;;;;;37.90;16.05;;;;;;;7.92;100.00;97810.28;5009889;28;20052;-54
2021/03/02 10:10:57;;;;;;;30.23;16.27;;;;;;;7.98;100.00;97808.13;5045217;28;20037;-51
2021/03/02 10:13:29;;;;;;;23.67;14.88;;;;;;;7.92;100.00;97808.50;5008916;28;20491;-55
2021/03/02 10:16:14;;;;;;;24.65;14.65;;;;;;;8.08;100.00;97811.00;5039128;28;20052;-56
2021/03/02 10:18:46;;;;;;;31.60;14.68;;;;;;;8.28;100.00;97813.22;5004099;28;20025;-56
2021/03/02 10:21:13;;;;;;;23.20;15.35;;;;;;;8.35;100.00;97815.47;5048398;28;20048;-53
2021/03/02 10:23:43;;;;;;;30.35;16.75;;;;;;;8.63;100.00;97812.78;5005359;28;20549;-57
2021/03/02 10:26:11;;;;;;;26.65;15.50;;;;;;;8.51;100.00;97822.31;5029274;28;20037;-54
2021/03/02 10:28:38;;;;;;;23.70;15.25;;;;;;;8.88;100.00;97809.41;4990324;28;20056;-55
2021/03/02 10:31:05;;;;;;;22.67;14.80;;;;;;;8.82;100.00;97819.50;5019699;28;20091;-55
2021/03/02 10:33:32;;;;;;;25.73;15.05;;;;;;;9.00;100.00;97816.47;4994148;28;20069;-56
2021/03/02 10:35:59;;;;;;;27.52;15.27;;;;;;;8.92;100.00;97810.91;5031962;28;22452;-53
2021/03/02 10:38:26;;;;;;;21.00;13.77;;;;;;;8.80;100.00;97816.94;5007844;28;20048;-58
2021/03/02 10:40:53;;;;;;;22.60;13.02;;;;;;;8.90;100.00;97810.16;5039787;28;20037;-58
2021/03/02 10:43:21;;;;;;;19.15;12.95;;;;;;;8.85;98.27;97814.03;5006153;28;22697;-55
2021/03/02 10:45:48;;;;;;;20.80;12.82;;;;;;;8.91;100.00;97813.59;5043751;28;20045;-56
2021/03/02 10:48:15;;;;;;;22.38;13.40;;;;;;;9.09;100.00;97816.84;5004621;28;20044;-57
2021/03/02 10:50:42;;;;;;;21.15;13.38;;;;;;;8.86;100.00;97811.28;5058209;28;20506;-55
2021/03/02 10:53:27;;;;;;;19.25;11.32;;;;;;;9.14;94.39;97805.03;5009020;28;20072;-53
2021/03/02 10:55:54;;;;;;;17.33;12.00;;;;;;;9.21;87.56;97797.59;5052150;28;20444;-56
2021/03/02 10:58:21;;;;;;;15.63;10.90;;;;;;;9.32;90.07;97804.75;5045931;28;20124;-58
2021/03/02 11:00:48;;;;;;;20.33;12.18;;;;;;;9.15;90.16;97801.50;5005773;28;20060;-57
2021/03/02 11:03:16;;;;;;;18.35;11.77;;;;;;;9.24;90.01;97794.75;5045851;28;20041;-55
2021/03/02 11:05:43;;;;;;;17.05;11.73;;;;;;;9.42;87.32;97798.75;5003082;28;20396;-56
2021/03/02 11:08:10;;;;;;;21.88;13.82;;;;;;;9.47;92.38;97794.03;5037146;28;20067;-52
2021/03/02 11:10:36;;;;;;;21.83;13.60;;;;;;;9.22;98.40;97791.34;5010472;28;20099;-56
2021/03/02 11:13:04;;;;;;;23.35;14.98;;;;;;;9.49;95.90;97788.66;5052862;28;20060;-58
2021/03/02 11:15:32;;;;;;;21.48;13.98;;;;;;;9.54;95.45;97793.63;5019848;28;20056;-59
2021/03/02 11:17:59;;;;;;;24.02;14.27;;;;;;;9.40;97.05;97790.13;5048574;28;20077;-57
2021/03/02 11:20:35;;;;;;;20.70;13.65;;;;;;;9.68;97.59;97791.72;5009310;28;20045;-58
2021/03/02 11:23:02;;;;;;;23.63;14.35;;;;;;;9.98;97.29;97787.91;4962368;28;20041;-56
2021/03/02 11:25:34;;;;;;;24.92;15.10;;;;;;;9.97;96.11;97781.75;4973902;28;20404;-59
2021/03/02 11:28:01;;;;;;;26.52;14.90;;;;;;;10.10;96.63;97786.16;5029818;28;20141;-54
2021/03/02 11:30:32;;;;;;;24.52;15.40;;;;;;;10.18;99.98;97779.38;4987649;28;20137;-54